createdAt,value
2022-08-10T00:00:33.788Z,0.00
2022-08-10T00:01:33.866Z,0.00
2022-08-10T00:02:33.925Z,0.00
2022-08-10T00:03:33.786Z,0.00
2022-08-10T00:04:33.737Z,0.00
2022-08-10T00:05:43.701Z,0.00
2022-08-10T00:06:33.742Z,0.00
2022-08-10T00:07:33.750Z,0.00
2022-08-10T00:08:33.711Z,0.00
2022-08-10T00:09:33.720Z,0.00
2022-08-10T00:10:33.725Z,0.00
2022-08-10T00:11:33.673Z,0.00
2022-08-10T00:12:54.058Z,0.00
2022-08-10T00:13:33.652Z,0.00
2022-08-10T00:14:33.630Z,0.00
2022-08-10T00:15:53.108Z,0.00
2022-08-10T00:16:33.621Z,0.00
2022-08-10T00:17:33.664Z,0.00
2022-08-10T00:18:35.830Z,0.00
2022-08-10T00:20:02.476Z,0.00
2022-08-10T00:20:33.568Z,0.00
2022-08-10T00:21:33.596Z,0.00
2022-08-10T00:22:33.870Z,0.00
2022-08-10T00:23:33.584Z,0.00
2022-08-10T00:24:33.542Z,0.00
2022-08-10T00:25:33.558Z,0.00
2022-08-10T00:27:59.029Z,0.00
2022-08-10T00:28:07.924Z,0.00
2022-08-10T00:28:33.511Z,0.00
2022-08-10T00:29:33.506Z,0.00
2022-08-10T00:30:33.468Z,0.00
2022-08-10T00:31:33.486Z,0.00
2022-08-10T00:32:33.625Z,0.00
2022-08-10T00:33:33.463Z,0.00
2022-08-10T00:34:33.437Z,0.00
2022-08-10T00:35:33.446Z,0.00
2022-08-10T00:36:33.408Z,0.00
2022-08-10T00:37:33.415Z,0.00
2022-08-10T00:38:33.445Z,0.00
2022-08-10T00:39:36.367Z,0.00
2022-08-10T00:40:37.285Z,0.00
2022-08-10T00:41:33.379Z,0.00
2022-08-10T00:42:33.687Z,0.00
2022-08-10T00:43:33.368Z,0.00
2022-08-10T00:44:33.335Z,0.00
2022-08-10T00:45:33.330Z,0.00
2022-08-10T00:46:33.310Z,0.00
2022-08-10T00:47:36.955Z,0.00
2022-08-10T00:48:33.295Z,0.00
2022-08-10T00:49:33.365Z,0.00
2022-08-10T00:50:33.266Z,0.00
2022-08-10T00:51:40.353Z,0.00
2022-08-10T00:52:33.614Z,0.00
2022-08-10T00:53:33.269Z,0.00
2022-08-10T00:54:33.237Z,0.00
2022-08-10T00:55:33.294Z,0.00
2022-08-10T00:57:16.473Z,0.00
2022-08-10T00:57:33.235Z,0.00
2022-08-10T00:58:33.257Z,0.00
2022-08-10T00:59:33.220Z,0.00
2022-08-10T01:00:33.177Z,0.00
2022-08-10T01:02:08.996Z,0.00
2022-08-10T01:02:33.539Z,0.00
2022-08-10T01:04:45.168Z,0.00
2022-08-10T01:05:05.014Z,0.00
2022-08-10T01:05:33.135Z,0.00
2022-08-10T01:06:33.120Z,0.00
2022-08-10T01:07:33.128Z,0.00
2022-08-10T01:08:33.091Z,0.00
2022-08-10T01:09:33.100Z,0.00
2022-08-10T01:10:33.096Z,0.00
2022-08-10T01:12:27.783Z,0.00
2022-08-10T01:12:44.627Z,0.00
2022-08-10T01:13:33.052Z,0.00
2022-08-10T01:14:33.041Z,0.00
2022-08-10T01:15:33.045Z,0.00
2022-08-10T01:16:33.012Z,0.00
2022-08-10T01:17:50.402Z,0.00
2022-08-10T01:18:37.237Z,0.00
2022-08-10T01:19:33.020Z,0.00
2022-08-10T01:20:33.005Z,0.00
2022-08-10T01:21:32.995Z,0.00
2022-08-10T01:22:33.356Z,0.00
2022-08-10T01:23:32.955Z,0.00
2022-08-10T01:24:32.938Z,0.00
2022-08-10T01:25:32.977Z,0.00
2022-08-10T01:26:32.923Z,0.00
2022-08-10T01:27:32.919Z,0.00
2022-08-10T01:28:32.923Z,0.00
2022-08-10T01:29:32.901Z,0.00
2022-08-10T01:30:32.878Z,0.00
2022-08-10T01:31:32.878Z,0.00
2022-08-10T01:32:33.320Z,0.00
2022-08-10T01:33:58.517Z,0.00
2022-08-10T01:34:32.838Z,0.00
2022-08-10T01:35:32.881Z,0.00
2022-08-10T01:36:32.942Z,0.00
2022-08-10T01:37:32.823Z,0.00
2022-08-10T01:38:32.831Z,0.00
2022-08-10T01:39:32.878Z,0.00
2022-08-10T01:40:32.776Z,0.00
2022-08-10T01:41:43.985Z,0.00
2022-08-10T01:42:33.071Z,0.00
2022-08-10T01:43:32.750Z,0.00
2022-08-10T01:44:32.810Z,0.00
2022-08-10T01:45:44.865Z,0.00
2022-08-10T01:46:32.756Z,0.00
2022-08-10T01:47:32.729Z,0.00
2022-08-10T01:48:32.705Z,0.00
2022-08-10T01:49:32.693Z,0.00
2022-08-10T01:50:32.680Z,0.00
2022-08-10T01:51:32.680Z,0.00
2022-08-10T01:52:32.795Z,0.00
2022-08-10T01:53:40.914Z,0.00
2022-08-10T01:54:32.664Z,0.00
2022-08-10T01:55:32.623Z,0.00
2022-08-10T01:56:32.653Z,0.00
2022-08-10T01:57:32.615Z,0.00
2022-08-10T01:58:32.588Z,0.00
2022-08-10T01:59:32.612Z,0.00
2022-08-10T02:00:32.589Z,0.00
2022-08-10T02:01:32.643Z,0.00
2022-08-10T02:02:32.629Z,0.00
2022-08-10T02:03:32.538Z,0.00
2022-08-10T02:04:32.580Z,0.00
2022-08-10T02:05:32.528Z,0.00
2022-08-10T02:06:32.524Z,0.00
2022-08-10T02:07:32.514Z,0.00
2022-08-10T02:08:32.509Z,0.00
2022-08-10T02:09:32.477Z,0.00
2022-08-10T02:10:32.511Z,0.00
2022-08-10T02:12:05.371Z,0.00
2022-08-10T02:12:32.555Z,0.00
2022-08-10T02:13:32.445Z,0.00
2022-08-10T02:14:33.987Z,0.00
2022-08-10T02:15:32.427Z,0.00
2022-08-10T02:16:32.413Z,0.00
2022-08-10T02:17:59.807Z,0.00
2022-08-10T02:18:32.407Z,0.00
2022-08-10T02:19:32.391Z,0.00
2022-08-10T02:20:32.403Z,0.00
2022-08-10T02:21:32.349Z,0.00
2022-08-10T02:22:37.503Z,0.00
2022-08-10T02:23:32.345Z,0.00
2022-08-10T02:24:32.347Z,0.00
2022-08-10T02:25:40.865Z,0.00
2022-08-10T02:26:32.322Z,0.00
2022-08-10T02:27:32.312Z,0.00
2022-08-10T02:28:32.302Z,0.00
2022-08-10T02:29:32.274Z,0.00
2022-08-10T02:30:32.271Z,0.00
2022-08-10T02:31:32.259Z,0.00
2022-08-10T02:32:36.155Z,0.00
2022-08-10T02:33:32.228Z,0.00
2022-08-10T02:34:32.224Z,0.00
2022-08-10T02:35:42.092Z,0.00
2022-08-10T02:36:32.232Z,0.00
2022-08-10T02:37:32.185Z,0.00
2022-08-10T02:38:59.493Z,0.00
2022-08-10T02:39:32.211Z,0.00
2022-08-10T02:45:08.205Z,0.00
2022-08-10T02:45:31.667Z,0.00
2022-08-10T02:45:37.508Z,0.00
2022-08-10T02:46:37.022Z,0.00
2022-08-10T02:47:50.840Z,0.00
2022-08-10T02:48:37.013Z,0.00
2022-08-10T02:49:37.009Z,0.00
2022-08-10T02:50:36.974Z,0.00
2022-08-10T02:52:07.407Z,0.00
2022-08-10T02:52:37.149Z,0.00
2022-08-10T02:53:51.423Z,0.00
2022-08-10T02:54:36.950Z,0.00
2022-08-10T02:55:36.940Z,0.00
2022-08-10T02:56:36.909Z,0.00
2022-08-10T02:57:36.925Z,0.00
2022-08-10T02:58:36.899Z,0.00
2022-08-10T02:59:39.679Z,0.00
2022-08-10T03:00:36.865Z,0.00
2022-08-10T03:01:36.976Z,0.00
2022-08-10T03:02:37.129Z,0.00
2022-08-10T03:03:36.868Z,0.00
2022-08-10T03:04:55.417Z,0.00
2022-08-10T03:05:36.842Z,0.00
2022-08-10T03:06:36.836Z,0.00
2022-08-10T03:07:44.090Z,0.00
2022-08-10T03:08:36.816Z,0.00
2022-08-10T03:09:36.792Z,0.00
2022-08-10T03:10:39.560Z,0.00
2022-08-10T03:12:35.362Z,0.00
2022-08-10T03:12:42.542Z,0.00
2022-08-10T03:13:36.744Z,0.00
2022-08-10T03:14:36.736Z,0.00
2022-08-10T03:15:36.729Z,0.00
2022-08-10T03:16:36.756Z,0.00
2022-08-10T03:17:36.744Z,0.00
2022-08-10T03:18:36.685Z,0.00
2022-08-10T03:20:34.707Z,0.00
2022-08-10T03:20:43.033Z,0.00
2022-08-10T03:21:36.668Z,0.00
2022-08-10T03:22:36.821Z,0.00
2022-08-10T03:23:36.585Z,1.00
2022-08-10T03:24:36.622Z,0.00
2022-08-10T03:25:36.627Z,0.00
2022-08-10T03:26:36.550Z,1.00
2022-08-10T03:27:36.582Z,1.00
2022-08-10T03:28:36.542Z,1.00
2022-08-10T03:30:31.959Z,1.00
2022-08-10T03:30:38.549Z,0.00
2022-08-10T03:31:36.582Z,0.00
2022-08-10T03:32:36.646Z,2.00
2022-08-10T03:33:36.489Z,1.00
2022-08-10T03:34:36.473Z,1.00
2022-08-10T03:35:36.538Z,0.00
2022-08-10T03:36:41.641Z,2.00
2022-08-10T03:37:36.458Z,1.00
2022-08-10T03:38:36.450Z,5.00
2022-08-10T03:39:36.452Z,4.00
2022-08-10T03:40:44.805Z,5.00
2022-08-10T03:41:36.410Z,3.00
2022-08-10T03:42:36.600Z,5.00
2022-08-10T03:43:36.390Z,3.00
2022-08-10T03:44:36.368Z,4.00
2022-08-10T03:45:54.788Z,5.00
2022-08-10T03:46:36.377Z,6.00
2022-08-10T03:47:36.352Z,6.00
2022-08-10T03:48:45.191Z,8.00
2022-08-10T03:49:36.331Z,13.00
2022-08-10T03:50:50.930Z,16.00
2022-08-10T03:51:36.304Z,21.00
2022-08-10T03:52:36.476Z,22.00
2022-08-10T03:54:04.567Z,26.00
2022-08-10T03:54:36.339Z,26.00
2022-08-10T03:56:29.750Z,29.00
2022-08-10T03:56:36.270Z,40.00
2022-08-10T03:57:36.243Z,49.00
2022-08-10T03:58:36.231Z,55.00
2022-08-10T03:59:36.261Z,56.00
2022-08-10T04:00:36.266Z,61.00
2022-08-10T04:02:46.746Z,67.00
2022-08-10T04:02:53.201Z,71.00
2022-08-10T04:03:36.186Z,81.00
2022-08-10T04:04:36.147Z,90.00
2022-08-10T04:05:38.822Z,89.00
2022-08-10T04:06:36.144Z,94.00
2022-08-10T04:07:36.137Z,106.00
2022-08-10T04:08:36.135Z,117.00
2022-08-10T04:09:53.560Z,127.00
2022-08-10T04:10:36.125Z,137.00
2022-08-10T04:11:36.134Z,155.00
2022-08-10T04:12:36.332Z,166.00
2022-08-10T04:13:36.092Z,181.00
2022-08-10T04:14:49.860Z,198.00
2022-08-10T04:15:36.047Z,211.00
2022-08-10T04:16:36.040Z,233.00
2022-08-10T04:18:04.121Z,249.00
2022-08-10T04:18:36.067Z,269.00
2022-08-10T04:19:36.044Z,283.00
2022-08-10T04:20:35.988Z,298.00
2022-08-10T04:21:35.994Z,309.00
2022-08-10T04:22:36.156Z,322.00
2022-08-10T04:23:35.952Z,338.00
2022-08-10T04:24:35.980Z,355.00
2022-08-10T04:25:35.945Z,377.00
2022-08-10T04:26:35.941Z,398.00
2022-08-10T04:27:35.921Z,420.00
2022-08-10T04:28:35.907Z,435.00
2022-08-10T04:29:35.918Z,450.00
2022-08-10T04:30:35.914Z,468.00
2022-08-10T04:31:35.889Z,485.00
2022-08-10T04:32:36.050Z,505.00
2022-08-10T04:33:35.874Z,525.00
2022-08-10T04:34:35.877Z,551.00
2022-08-10T04:35:35.845Z,574.00
2022-08-10T04:36:35.841Z,598.00
2022-08-10T04:37:35.927Z,623.00
2022-08-10T04:38:35.806Z,648.00
2022-08-10T04:39:35.945Z,676.00
2022-08-10T04:40:35.784Z,705.00
2022-08-10T04:41:35.810Z,732.00
2022-08-10T04:42:36.077Z,761.00
2022-08-10T04:43:35.763Z,787.00
2022-08-10T04:44:35.761Z,812.00
2022-08-10T04:45:48.792Z,845.00
2022-08-10T04:46:56.492Z,868.00
2022-08-10T04:47:57.490Z,900.00
2022-08-10T04:48:42.497Z,928.00
2022-08-10T04:49:55.373Z,963.00
2022-08-10T04:50:35.680Z,990.00
2022-08-10T04:51:35.704Z,1018.00
2022-08-10T04:52:35.918Z,1054.00
2022-08-10T04:54:04.825Z,1093.00
2022-08-10T04:54:35.654Z,1124.00
2022-08-10T04:55:35.662Z,1163.00
2022-08-10T04:56:35.628Z,1193.00
2022-08-10T04:57:35.610Z,1228.00
2022-08-10T04:58:35.602Z,1261.00
2022-08-10T04:59:35.618Z,1277.00
2022-08-10T05:00:35.611Z,1313.00
2022-08-10T05:02:21.141Z,1350.00
2022-08-10T05:02:35.642Z,1370.00
2022-08-10T05:03:35.552Z,1382.00
2022-08-10T05:04:42.200Z,1419.00
2022-08-10T05:05:35.522Z,1428.00
2022-08-10T05:06:35.562Z,1436.00
2022-08-10T05:07:43.397Z,1459.00
2022-08-10T05:08:35.503Z,1485.00
2022-08-10T05:10:02.311Z,1495.00
2022-08-10T05:10:35.514Z,1513.00
2022-08-10T05:11:35.472Z,1540.00
2022-08-10T05:12:36.165Z,1560.00
2022-08-10T05:13:35.452Z,1590.00
2022-08-10T05:14:35.436Z,1612.00
2022-08-10T05:15:35.435Z,1647.00
2022-08-10T05:16:35.451Z,1682.00
2022-08-10T05:17:35.461Z,1715.00
2022-08-10T05:18:35.401Z,1755.00
2022-08-10T05:20:01.630Z,1783.00
2022-08-10T05:20:35.373Z,1812.00
2022-08-10T05:22:03.913Z,1838.00
2022-08-10T05:22:35.810Z,1846.00
2022-08-10T05:23:35.356Z,1867.00
2022-08-10T05:24:35.368Z,1870.00
2022-08-10T05:25:37.306Z,1882.00
2022-08-10T05:26:39.200Z,1889.00
2022-08-10T05:27:35.314Z,1894.00
2022-08-10T05:28:35.419Z,1907.00
2022-08-10T05:29:35.289Z,1904.00
2022-08-10T05:30:35.272Z,1912.00
2022-08-10T05:31:35.272Z,1895.00
2022-08-10T05:32:58.573Z,1905.00
2022-08-10T05:33:35.280Z,1935.00
2022-08-10T05:34:35.226Z,1948.00
2022-08-10T05:35:56.319Z,1954.00
2022-08-10T05:36:35.211Z,1959.00
2022-08-10T05:38:10.740Z,1987.00
2022-08-10T05:38:35.209Z,1995.00
2022-08-10T05:39:35.227Z,1996.00
2022-08-10T05:40:35.170Z,1995.00
2022-08-10T05:41:35.170Z,1987.00
2022-08-10T05:42:35.305Z,1988.00
2022-08-10T05:43:35.237Z,1995.00
2022-08-10T05:44:35.121Z,2011.00
2022-08-10T05:46:15.817Z,1995.00
2022-08-10T05:46:35.131Z,1981.00
2022-08-10T05:48:56.964Z,1959.00
2022-08-10T05:49:04.897Z,1985.00
2022-08-10T05:49:35.085Z,1970.00
2022-08-10T05:50:35.063Z,1984.00
2022-08-10T05:51:35.063Z,1983.00
2022-08-10T05:52:35.219Z,1988.00
2022-08-10T05:54:01.431Z,1981.00
2022-08-10T05:54:35.016Z,1970.00
2022-08-10T05:55:35.033Z,1952.00
2022-08-10T05:56:53.391Z,1936.00
2022-08-10T05:57:35.003Z,1915.00
2022-08-10T05:58:35.025Z,1896.00
2022-08-10T06:00:32.441Z,1895.00
2022-08-10T06:00:45.941Z,1899.00
2022-08-10T06:01:35.043Z,1907.00
2022-08-10T06:02:35.888Z,1891.00
2022-08-10T06:03:34.969Z,1870.00
2022-08-10T06:04:34.919Z,1858.00
2022-08-10T06:05:34.918Z,1838.00
2022-08-10T06:06:34.894Z,1829.00
2022-08-10T06:07:35.086Z,1847.00
2022-08-10T06:08:34.909Z,1856.00
2022-08-10T06:09:34.862Z,1869.00
2022-08-10T06:10:35.567Z,1892.00
2022-08-10T06:12:28.260Z,1901.00
2022-08-10T06:12:53.343Z,1915.00
2022-08-10T06:13:57.889Z,1929.00
2022-08-10T06:14:34.810Z,1935.00
2022-08-10T06:15:51.989Z,1937.00
2022-08-10T06:16:34.865Z,1943.00
2022-08-10T06:17:34.786Z,1951.00
2022-08-10T06:18:34.778Z,1970.00
2022-08-10T06:19:34.751Z,1984.00
2022-08-10T06:20:36.279Z,1992.00
2022-08-10T06:21:34.739Z,2011.00
2022-08-10T06:22:34.970Z,2027.00
2022-08-10T06:23:34.747Z,2026.00
2022-08-10T06:24:34.727Z,2019.00
2022-08-10T06:26:34.740Z,1963.00
2022-08-10T06:27:35.084Z,1948.00
2022-08-10T06:28:34.685Z,1974.00
2022-08-10T06:29:34.657Z,1935.00
2022-08-10T06:30:34.642Z,2094.00
2022-08-10T06:31:48.819Z,2185.00
2022-08-10T06:32:34.779Z,2214.00
2022-08-10T06:33:34.614Z,2156.00
2022-08-10T06:34:34.633Z,2125.00
2022-08-10T06:35:34.589Z,2428.00
2022-08-10T06:36:34.625Z,2235.00
2022-08-10T06:37:34.570Z,2684.00
2022-08-10T06:38:34.567Z,2526.00
2022-08-10T06:39:35.834Z,2355.00
2022-08-10T06:40:34.548Z,2267.00
2022-08-10T06:41:57.651Z,2206.00
2022-08-10T06:42:34.652Z,2157.00
2022-08-10T06:43:34.504Z,2152.00
2022-08-10T06:44:34.509Z,2100.00
2022-08-10T06:45:34.668Z,2086.00
2022-08-10T06:46:34.489Z,1622.00
2022-08-10T06:47:34.461Z,2357.00
2022-08-10T06:48:34.456Z,1144.00
2022-08-10T06:49:34.461Z,8826.00
2022-08-10T06:50:56.193Z,6969.00
2022-08-10T06:51:34.445Z,3315.00
2022-08-10T06:52:34.791Z,2256.00
2022-08-10T06:53:53.359Z,2215.00
2022-08-10T06:54:34.418Z,2127.00
2022-08-10T06:55:49.860Z,2193.00
2022-08-10T06:56:37.989Z,2123.00
2022-08-10T06:57:34.371Z,2206.00
2022-08-10T06:58:34.374Z,2177.00
2022-08-10T06:59:34.338Z,2320.00
2022-08-10T07:00:34.769Z,2102.00
2022-08-10T07:01:34.412Z,2262.00
2022-08-10T07:02:34.496Z,2316.00
2022-08-10T07:03:34.300Z,1187.00
2022-08-10T07:04:34.311Z,4608.00
2022-08-10T07:05:34.286Z,1601.00
2022-08-10T07:06:34.322Z,5058.00
2022-08-10T07:07:34.257Z,2303.00
2022-08-10T07:08:34.268Z,13276.00
2022-08-10T07:09:34.291Z,8306.00
2022-08-10T07:10:45.597Z,3681.00
2022-08-10T07:11:34.264Z,3599.00
2022-08-10T07:12:34.442Z,1185.00
2022-08-10T07:14:14.687Z,4477.00
2022-08-10T07:14:34.208Z,12242.00
2022-08-10T07:15:57.278Z,5808.00
2022-08-10T07:16:34.197Z,2841.00
2022-08-10T07:17:39.090Z,1098.00
2022-08-10T07:18:34.176Z,1987.00
2022-08-10T07:19:34.165Z,8013.00
2022-08-10T07:20:34.149Z,12186.00
2022-08-10T07:21:34.119Z,1406.00
2022-08-10T07:23:51.783Z,11546.00
2022-08-10T07:24:01.378Z,2632.00
2022-08-10T07:24:34.101Z,2572.00
2022-08-10T07:25:34.116Z,2422.00
2022-08-10T07:26:34.085Z,2641.00
2022-08-10T07:27:39.134Z,2274.00
2022-08-10T07:28:34.066Z,2373.00
2022-08-10T07:29:54.309Z,2699.00
2022-08-10T07:30:34.039Z,2669.00
2022-08-10T07:31:56.842Z,2604.00
2022-08-10T07:32:34.138Z,2594.00
2022-08-10T07:33:34.008Z,2951.00
2022-08-10T07:34:33.992Z,3557.00
2022-08-10T07:35:42.880Z,2705.00
2022-08-10T07:36:33.987Z,2794.00
2022-08-10T07:37:33.952Z,1668.00
2022-08-10T07:38:33.960Z,4326.00
2022-08-10T07:39:57.960Z,6709.00
2022-08-10T07:40:34.052Z,2951.00
2022-08-10T07:41:33.946Z,2935.00
2022-08-10T07:42:33.908Z,36289.00
2022-08-10T07:43:33.925Z,30356.00
2022-08-10T07:44:33.893Z,19933.00
2022-08-10T07:45:33.871Z,2993.00
2022-08-10T07:46:33.881Z,15356.00
2022-08-10T07:47:53.929Z,2943.00
2022-08-10T07:48:33.886Z,10256.00
2022-08-10T07:49:33.840Z,3758.00
2022-08-10T07:50:35.975Z,37490.00
2022-08-10T07:51:33.806Z,26721.00
2022-08-10T07:52:33.819Z,21145.00
2022-08-10T07:53:33.812Z,22503.00
2022-08-10T07:54:33.788Z,31572.00
2022-08-10T07:56:04.548Z,22010.00
2022-08-10T07:56:48.325Z,19791.00
2022-08-10T07:57:38.202Z,5062.00
2022-08-10T07:58:33.789Z,26333.00
2022-08-10T07:59:33.728Z,5125.00
2022-08-10T08:00:33.728Z,5745.00
2022-08-10T08:01:33.803Z,14282.00
2022-08-10T08:02:35.822Z,3785.00
2022-08-10T08:03:33.701Z,20521.00
2022-08-10T08:04:33.698Z,2491.00
2022-08-10T08:05:58.421Z,10573.00
2022-08-10T08:06:33.684Z,24717.00
2022-08-10T08:07:33.667Z,13572.00
2022-08-10T08:08:33.801Z,12686.00
2022-08-10T08:09:33.629Z,2394.00
2022-08-10T08:10:33.641Z,17963.00
2022-08-10T08:11:33.635Z,9421.00
2022-08-10T08:12:37.016Z,13055.00
2022-08-10T08:13:33.604Z,4150.00
2022-08-10T08:14:33.599Z,29615.00
2022-08-10T08:16:20.125Z,9450.00
2022-08-10T08:16:33.571Z,2584.00
2022-08-10T08:17:35.732Z,25367.00
2022-08-10T08:18:36.852Z,28255.00
2022-08-10T08:19:37.583Z,15039.00
2022-08-10T08:20:33.532Z,17701.00
2022-08-10T08:24:05.430Z,64947.00
2022-08-10T08:24:32.406Z,20790.00
2022-08-10T08:24:38.743Z,32750.00
2022-08-10T08:25:28.115Z,13019.00
2022-08-10T08:26:28.114Z,3522.00
2022-08-10T08:27:28.095Z,39389.00
2022-08-10T08:28:28.083Z,27662.00
2022-08-10T08:29:28.076Z,5299.00
2022-08-10T08:30:28.166Z,36776.00
2022-08-10T08:31:28.077Z,36371.00
2022-08-10T08:32:28.186Z,26565.00
2022-08-10T08:33:43.675Z,37781.00
2022-08-10T08:34:28.054Z,32442.00
2022-08-10T08:35:28.036Z,36456.00
2022-08-10T08:36:28.004Z,26809.00
2022-08-10T08:38:31.461Z,29169.00
2022-08-10T08:38:39.075Z,6757.00
2022-08-10T08:39:28.032Z,3166.00
2022-08-10T08:40:27.981Z,18718.00
2022-08-10T08:41:27.969Z,16642.00
2022-08-10T08:42:27.938Z,36879.00
2022-08-10T08:43:31.402Z,30721.00
2022-08-10T08:44:31.689Z,13307.00
2022-08-10T08:45:27.940Z,8988.00
2022-08-10T08:46:27.898Z,3576.00
2022-08-10T08:48:03.255Z,3241.00
2022-08-10T08:48:27.889Z,3409.00
2022-08-10T08:50:04.788Z,3372.00
2022-08-10T08:50:27.865Z,3061.00
2022-08-10T08:52:07.002Z,3118.00
2022-08-10T08:52:27.921Z,3034.00
2022-08-10T08:54:02.025Z,2926.00
2022-08-10T08:54:27.840Z,2707.00
2022-08-10T08:56:03.061Z,2720.00
2022-08-10T08:56:27.805Z,2665.00
2022-08-10T08:57:49.560Z,2670.00
2022-08-10T08:58:27.818Z,2621.00
2022-08-10T08:59:27.780Z,2570.00
2022-08-10T09:00:27.785Z,2545.00
2022-08-10T09:01:38.299Z,2417.00
2022-08-10T09:02:27.792Z,2443.00
2022-08-10T09:03:28.528Z,2346.00
2022-08-10T09:04:27.754Z,2348.00
2022-08-10T09:05:27.724Z,2252.00
2022-08-10T09:06:27.719Z,2219.00
2022-08-10T09:07:59.175Z,2211.00
2022-08-10T09:08:27.681Z,2191.00
2022-08-10T09:09:27.683Z,2101.00
2022-08-10T09:10:27.663Z,2113.00
2022-08-10T09:11:27.700Z,2074.00
2022-08-10T09:12:27.718Z,2114.00
2022-08-10T09:13:27.659Z,1944.00
2022-08-10T09:14:27.625Z,2016.00
2022-08-10T09:15:39.877Z,1991.00
2022-08-10T09:16:27.606Z,1943.00
2022-08-10T09:17:27.605Z,1934.00
2022-08-10T09:18:27.597Z,1967.00
2022-08-10T09:19:36.264Z,1953.00
2022-08-10T09:20:27.594Z,1906.00
2022-08-10T09:21:27.582Z,1971.00
2022-08-10T09:22:27.536Z,1875.00
2022-08-10T09:24:01.444Z,1886.00
2022-08-10T09:24:27.532Z,1892.00
2022-08-10T09:25:27.530Z,1922.00
2022-08-10T09:26:27.501Z,1961.00
2022-08-10T09:27:27.521Z,1841.00
2022-08-10T09:28:27.477Z,1913.00
2022-08-10T09:29:27.501Z,1958.00
2022-08-10T09:30:31.163Z,1870.00
2022-08-10T09:31:27.465Z,1912.00
2022-08-10T09:36:17.345Z,1950.00
2022-08-10T09:36:35.628Z,1912.00
2022-08-10T09:36:41.237Z,1864.00
2022-08-10T09:38:01.091Z,1900.00
2022-08-10T09:38:40.765Z,1886.00
2022-08-10T09:40:56.913Z,1963.00
2022-08-10T09:41:12.868Z,1871.00
2022-08-10T09:41:40.820Z,1931.00
2022-08-10T09:42:40.725Z,1963.00
2022-08-10T09:43:40.712Z,1911.00
2022-08-10T09:44:58.105Z,1942.00
2022-08-10T09:45:40.695Z,1943.00
2022-08-10T09:46:40.678Z,1951.00
2022-08-10T09:48:00.939Z,1931.00
2022-08-10T09:48:40.680Z,1936.00
2022-08-10T09:49:59.692Z,1878.00
2022-08-10T09:51:28.039Z,2033.00
2022-08-10T09:51:48.050Z,1792.00
2022-08-10T09:52:40.633Z,1935.00
2022-08-10T09:53:40.607Z,1852.00
2022-08-10T09:54:40.587Z,1918.00
2022-08-10T09:56:17.512Z,1920.00
2022-08-10T09:56:40.579Z,1942.00
2022-08-10T09:57:44.891Z,1882.00
2022-08-10T09:58:40.558Z,1939.00
2022-08-10T10:00:01.891Z,1962.00
2022-08-10T10:00:40.541Z,1957.00
2022-08-10T10:02:00.399Z,1953.00
2022-08-10T10:02:40.525Z,2075.00
2022-08-10T10:03:40.609Z,2048.00
2022-08-10T10:04:40.482Z,1998.00
2022-08-10T10:05:40.479Z,2123.00
2022-08-10T10:06:40.498Z,1919.00
2022-08-10T10:07:40.468Z,1923.00
2022-08-10T10:08:42.916Z,2013.00
2022-08-10T10:09:40.468Z,1868.00
2022-08-10T10:10:47.640Z,1904.00
2022-08-10T10:11:40.458Z,1906.00
2022-08-10T10:12:40.435Z,1914.00
2022-08-10T10:13:49.021Z,1799.00
2022-08-10T10:14:40.395Z,2064.00
2022-08-10T10:15:40.396Z,1872.00
2022-08-10T10:16:40.365Z,1858.00
2022-08-10T10:17:40.388Z,1881.00
2022-08-10T10:18:40.383Z,1953.00
2022-08-10T10:19:41.062Z,1860.00
2022-08-10T10:20:40.325Z,1857.00
2022-08-10T10:21:55.253Z,1857.00
2022-08-10T10:22:40.314Z,1915.00
2022-08-10T10:23:40.317Z,1949.00
2022-08-10T10:24:40.303Z,1951.00
2022-08-10T10:25:51.478Z,1927.00
2022-08-10T10:26:40.302Z,1822.00
2022-08-10T10:27:40.295Z,1868.00
2022-08-10T10:29:11.790Z,2057.00
2022-08-10T10:29:56.200Z,1733.00
2022-08-10T10:30:40.237Z,1970.00
2022-08-10T10:31:40.224Z,1875.00
2022-08-10T10:32:40.213Z,1910.00
2022-08-10T10:33:40.245Z,1865.00
2022-08-10T10:34:40.219Z,1836.00
2022-08-10T10:35:40.215Z,1936.00
2022-08-10T10:36:40.182Z,1963.00
2022-08-10T10:38:02.734Z,1880.00
2022-08-10T10:38:40.173Z,1944.00
2022-08-10T10:39:40.166Z,2029.00
2022-08-10T10:40:40.150Z,1767.00
2022-08-10T10:41:56.026Z,2000.00
2022-08-10T10:42:45.129Z,1835.00
2022-08-10T10:43:40.163Z,1887.00
2022-08-10T10:44:42.260Z,1856.00
2022-08-10T10:45:50.201Z,1995.00
2022-08-10T10:46:40.096Z,1919.00
2022-08-10T10:47:40.065Z,1864.00
2022-08-10T10:48:40.070Z,1791.00
2022-08-10T10:49:40.053Z,1824.00
2022-08-10T10:50:40.059Z,1894.00
2022-08-10T10:51:40.022Z,1919.00
2022-08-10T10:52:40.030Z,1897.00
2022-08-10T10:53:39.989Z,1877.00
2022-08-10T10:54:40.010Z,1941.00
2022-08-10T10:56:14.358Z,1900.00
2022-08-10T10:56:40.001Z,1902.00
2022-08-10T10:57:59.392Z,1928.00
2022-08-10T10:58:39.962Z,1904.00
2022-08-10T10:59:55.480Z,1916.00
2022-08-10T11:00:39.941Z,1907.00
2022-08-10T11:01:39.952Z,1908.00
2022-08-10T11:02:39.925Z,1948.00
2022-08-10T11:03:39.894Z,1945.00
2022-08-10T11:04:39.916Z,1913.00
2022-08-10T11:05:39.878Z,2014.00
2022-08-10T11:06:40.860Z,1783.00
2022-08-10T11:07:39.862Z,1897.00
2022-08-10T11:08:39.867Z,1795.00
2022-08-10T11:10:05.114Z,1887.00
2022-08-10T11:10:46.218Z,1867.00
2022-08-10T11:12:01.434Z,1828.00
2022-08-10T11:12:39.956Z,1853.00
2022-08-10T11:14:27.237Z,1881.00
2022-08-10T11:14:39.812Z,1890.00
2022-08-10T11:15:43.131Z,1841.00
2022-08-10T11:16:39.803Z,1939.00
2022-08-10T11:17:39.765Z,1886.00
2022-08-10T11:18:39.751Z,1908.00
2022-08-10T11:20:02.978Z,1897.00
2022-08-10T11:20:39.741Z,1843.00
2022-08-10T11:21:39.721Z,1881.00
2022-08-10T11:22:39.711Z,1932.00
2022-08-10T11:23:39.721Z,1785.00
2022-08-10T11:24:42.772Z,1856.00
2022-08-10T11:25:39.691Z,1867.00
2022-08-10T11:26:39.693Z,1881.00
2022-08-10T11:27:39.650Z,1832.00
2022-08-10T11:28:39.655Z,1961.00
2022-08-10T11:29:42.586Z,1794.00
2022-08-10T11:30:39.646Z,1713.00
2022-08-10T11:31:39.625Z,1870.00
2022-08-10T11:32:39.637Z,1852.00
2022-08-10T11:34:04.075Z,1878.00
2022-08-10T11:35:11.210Z,1883.00
2022-08-10T11:35:39.640Z,1853.00
2022-08-10T11:36:39.600Z,1834.00
2022-08-10T11:38:31.559Z,1866.00
2022-08-10T11:39:04.109Z,1869.00
2022-08-10T11:39:48.717Z,1848.00
2022-08-10T11:40:39.553Z,1850.00
2022-08-10T11:42:11.987Z,1952.00
2022-08-10T11:42:39.538Z,1662.00
2022-08-10T11:43:39.494Z,1947.00
2022-08-10T11:44:39.505Z,1686.00
2022-08-10T11:45:51.489Z,1824.00
2022-08-10T11:46:39.530Z,1876.00
2022-08-10T11:47:39.469Z,1902.00
2022-08-10T11:48:53.356Z,1788.00
2022-08-10T11:49:39.440Z,1781.00
2022-08-10T11:50:39.449Z,1922.00
2022-08-10T11:51:39.430Z,1711.00
2022-08-10T11:52:39.419Z,1849.00
2022-08-10T11:53:39.495Z,1825.00
2022-08-10T11:54:39.396Z,1870.00
2022-08-10T11:55:39.381Z,1823.00
2022-08-10T11:56:39.417Z,1816.00
2022-08-10T11:57:54.733Z,1830.00
2022-08-10T11:58:39.381Z,1830.00
2022-08-10T11:59:39.406Z,1816.00
2022-08-10T12:00:39.336Z,1815.00
2022-08-10T12:01:39.319Z,1814.00
2022-08-10T12:02:39.720Z,1824.00
2022-08-10T12:03:39.299Z,1842.00
2022-08-10T12:04:39.290Z,1849.00
2022-08-10T12:05:51.994Z,1860.00
2022-08-10T12:06:54.347Z,1833.00
2022-08-10T12:08:54.729Z,1860.00
2022-08-10T12:10:13.981Z,1799.00
2022-08-10T12:10:19.119Z,1860.00
2022-08-10T12:11:23.722Z,1779.00
2022-08-10T12:12:19.133Z,1807.00
2022-08-10T12:13:19.111Z,1805.00
2022-08-10T12:14:22.307Z,1892.00
2022-08-10T12:15:19.070Z,1765.00
2022-08-10T12:16:19.058Z,2028.00
2022-08-10T12:17:19.055Z,1639.00
2022-08-10T12:18:19.068Z,1731.00
2022-08-10T12:19:19.046Z,1819.00
2022-08-10T12:20:19.010Z,1818.00
2022-08-10T12:21:21.686Z,1847.00
2022-08-10T12:22:18.988Z,1776.00
2022-08-10T12:23:19.027Z,1930.00
2022-08-10T12:24:18.963Z,1669.00
2022-08-10T12:25:57.066Z,1941.00
2022-08-10T12:26:18.973Z,1701.00
2022-08-10T12:27:18.947Z,1799.00
2022-08-10T12:28:18.943Z,1840.00
2022-08-10T12:29:23.587Z,1866.00
2022-08-10T12:30:18.917Z,1744.00
2022-08-10T12:31:18.915Z,1831.00
2022-08-10T12:32:18.913Z,1807.00
2022-08-10T12:33:18.917Z,1788.00
2022-08-10T12:34:18.905Z,1806.00
2022-08-10T12:35:21.819Z,1818.00